createdAt,value
2019-02-02T00:02:15.434Z,71.60
2019-02-02T00:05:06.836Z,68.47
2019-02-02T00:07:57.458Z,67.97
2019-02-02T00:10:47.253Z,65.37
2019-02-02T00:13:37.117Z,73.20
2019-02-02T00:16:27.215Z,71.27
2019-02-02T00:19:17.202Z,68.37
2019-02-02T00:22:08.397Z,62.67
2019-02-02T00:24:58.596Z,64.17
2019-02-02T00:27:48.777Z,69.40
2019-02-02T00:30:38.539Z,64.00
2019-02-02T00:33:30.022Z,69.53
2019-02-02T00:36:20.249Z,65.70
2019-02-02T00:39:11.714Z,67.83
2019-02-02T00:42:01.692Z,55.23
2019-02-02T00:44:51.669Z,65.53
2019-02-02T00:47:41.450Z,63.87
2019-02-02T00:50:31.015Z,57.77
2019-02-02T00:53:20.525Z,69.23
2019-02-02T00:56:10.691Z,64.40
2019-02-02T00:59:00.449Z,64.40
2019-02-02T01:01:50.292Z,66.70
2019-02-02T01:04:40.160Z,61.47
2019-02-02T01:07:30.425Z,64.40
2019-02-02T01:10:28.121Z,68.30
2019-02-02T01:13:20.427Z,64.07
2019-02-02T01:16:10.391Z,67.47
2019-02-02T01:19:00.521Z,58.60
2019-02-02T01:21:50.946Z,63.30
2019-02-02T01:24:49.196Z,64.93
2019-02-02T01:27:39.928Z,61.30
2019-02-02T01:30:30.115Z,61.53
2019-02-02T01:33:20.321Z,59.40
2019-02-02T01:36:10.163Z,58.10
2019-02-02T01:39:00.221Z,63.80
2019-02-02T01:41:50.523Z,64.23
2019-02-02T01:44:40.741Z,59.77
2019-02-02T01:47:30.800Z,58.20
2019-02-02T01:50:23.142Z,63.93
2019-02-02T01:53:13.112Z,66.63
2019-02-02T01:56:03.386Z,66.17
2019-02-02T01:58:52.943Z,64.10
2019-02-02T02:01:42.932Z,68.40
2019-02-02T02:04:33.030Z,76.97
2019-02-02T02:07:23.261Z,72.40
2019-02-02T02:10:14.873Z,60.43
2019-02-02T02:13:03.860Z,60.10
2019-02-02T02:15:53.926Z,78.83
2019-02-02T02:18:44.127Z,72.27
2019-02-02T02:21:36.424Z,61.40
2019-02-02T02:24:26.387Z,61.17
2019-02-02T02:27:16.225Z,71.63
2019-02-02T02:30:07.951Z,60.77
2019-02-02T02:32:58.385Z,78.13
2019-02-02T02:35:48.708Z,72.70
2019-02-02T02:38:39.317Z,70.43
2019-02-02T02:41:29.318Z,70.23
2019-02-02T02:44:19.071Z,63.73
2019-02-02T02:47:09.023Z,63.80
2019-02-02T02:49:59.574Z,69.13
2019-02-02T02:52:49.653Z,63.13
2019-02-02T02:55:39.590Z,70.13
2019-02-02T02:58:41.148Z,74.20
2019-02-02T03:01:21.375Z,69.40
2019-02-02T03:04:11.766Z,62.77
2019-02-02T03:07:01.510Z,82.73
2019-02-02T03:09:51.201Z,68.87
2019-02-02T03:12:41.198Z,67.07
2019-02-02T03:15:31.218Z,71.33
2019-02-02T03:18:21.126Z,67.40
2019-02-02T03:21:11.299Z,69.03
2019-02-02T03:24:00.818Z,57.07
2019-02-02T03:26:50.668Z,67.77
2019-02-02T03:29:40.851Z,70.77
2019-02-02T03:32:30.611Z,70.37
2019-02-02T03:35:22.578Z,72.47
2019-02-02T03:38:12.359Z,62.77
2019-02-02T03:41:02.336Z,63.70
2019-02-02T03:43:52.430Z,59.90
2019-02-02T03:46:42.420Z,77.07
2019-02-02T03:49:31.982Z,68.67
2019-02-02T03:52:22.100Z,62.90
2019-02-02T03:55:14.400Z,71.10
2019-02-02T03:58:04.606Z,59.27
2019-02-02T04:00:54.291Z,59.30
2019-02-02T04:03:44.255Z,68.43
2019-02-02T04:06:33.707Z,68.27
2019-02-02T04:09:23.448Z,71.90
2019-02-02T04:12:13.777Z,68.07
2019-02-02T04:15:03.843Z,73.30
2019-02-02T04:17:53.749Z,63.97
2019-02-02T04:20:43.565Z,68.60
2019-02-02T04:23:33.286Z,63.47
2019-02-02T04:26:22.723Z,70.13
2019-02-02T04:29:17.824Z,71.43
2019-02-02T04:32:04.079Z,66.90
2019-02-02T04:34:54.109Z,66.23
2019-02-02T04:37:44.480Z,71.60
2019-02-02T04:40:34.663Z,79.90
2019-02-02T04:43:24.485Z,62.27
2019-02-02T04:46:14.597Z,67.53
2019-02-02T04:49:04.634Z,72.87
2019-02-02T04:51:54.394Z,64.83
2019-02-02T04:54:43.876Z,70.73
2019-02-02T04:57:34.299Z,65.30
2019-02-02T05:00:26.173Z,79.40
2019-02-02T05:03:16.271Z,70.30
2019-02-02T05:06:06.269Z,74.27
2019-02-02T05:08:56.447Z,66.37
2019-02-02T05:11:46.379Z,68.80
2019-02-02T05:14:36.257Z,70.57
2019-02-02T05:17:26.015Z,65.73
2019-02-02T05:20:16.491Z,63.23
2019-02-02T05:23:06.716Z,78.10
2019-02-02T05:25:56.627Z,70.40
2019-02-02T05:28:46.675Z,67.40
2019-02-02T05:31:36.507Z,67.90
2019-02-02T05:34:27.573Z,67.73
2019-02-02T05:37:17.851Z,72.50
2019-02-02T05:40:10.504Z,67.10
2019-02-02T05:43:00.520Z,82.17
2019-02-02T05:45:50.617Z,68.60
2019-02-02T05:48:40.346Z,69.37
2019-02-02T05:51:30.566Z,70.13
2019-02-02T05:54:20.303Z,72.10
2019-02-02T05:57:10.418Z,76.03
2019-02-02T06:00:00.026Z,70.63
2019-02-02T06:02:49.604Z,70.47
2019-02-02T06:05:39.300Z,77.37
2019-02-02T06:08:29.507Z,67.27
2019-02-02T06:11:18.639Z,66.00
2019-02-02T06:14:08.431Z,74.87
2019-02-02T06:16:58.290Z,78.13
2019-02-02T06:19:48.240Z,73.60
2019-02-02T06:22:38.186Z,75.63
2019-02-02T06:25:28.044Z,71.93
2019-02-02T06:28:18.050Z,68.43
2019-02-02T06:31:07.932Z,66.87
2019-02-02T06:33:57.888Z,76.80
2019-02-02T06:36:47.829Z,92.50
2019-02-02T06:39:37.680Z,76.77
2019-02-02T06:42:29.719Z,74.77
2019-02-02T06:45:24.553Z,69.00
2019-02-02T06:48:14.919Z,71.83
2019-02-02T06:51:05.237Z,78.43
2019-02-02T06:53:55.173Z,60.70
2019-02-02T06:56:45.825Z,70.40
2019-02-02T06:59:35.943Z,79.93
2019-02-02T07:02:25.928Z,69.67
2019-02-02T07:05:15.948Z,77.87
2019-02-02T07:08:05.834Z,76.70
2019-02-02T07:10:55.417Z,80.13
2019-02-02T07:13:45.076Z,79.83
2019-02-02T07:16:35.053Z,83.50
2019-02-02T07:19:24.872Z,77.67
2019-02-02T07:22:14.946Z,78.80
2019-02-02T07:25:05.634Z,74.97
2019-02-02T07:27:55.809Z,80.93
2019-02-02T07:30:45.504Z,82.47
2019-02-02T07:33:36.411Z,81.63
2019-02-02T07:36:26.256Z,79.20
2019-02-02T07:39:16.191Z,79.87
2019-02-02T07:42:05.435Z,93.53
2019-02-02T07:44:55.107Z,84.50
2019-02-02T07:47:45.417Z,87.00
2019-02-02T07:50:38.484Z,92.33
2019-02-02T07:53:28.950Z,91.97
2019-02-02T07:56:19.038Z,93.37
2019-02-02T07:59:08.762Z,96.67
2019-02-02T08:01:58.741Z,81.63
2019-02-02T08:04:49.066Z,102.80
2019-02-02T08:07:39.646Z,88.97
2019-02-02T08:10:29.910Z,93.50
2019-02-02T08:13:20.027Z,85.77
2019-02-02T08:16:10.337Z,87.53
2019-02-02T08:19:00.622Z,85.63
2019-02-02T08:21:50.389Z,84.40
2019-02-02T08:24:40.602Z,92.50
2019-02-02T08:27:30.418Z,94.17
2019-02-02T08:30:23.501Z,100.87
2019-02-02T08:33:13.468Z,91.73
2019-02-02T08:36:04.165Z,87.83
2019-02-02T08:38:53.983Z,91.20
2019-02-02T08:41:44.184Z,82.27
2019-02-02T08:44:34.123Z,83.00
2019-02-02T08:47:23.921Z,91.77
2019-02-02T08:50:36.535Z,86.50
2019-02-02T08:53:26.534Z,86.40
2019-02-02T08:56:16.431Z,90.73
2019-02-02T08:59:06.625Z,99.40
2019-02-02T09:01:57.309Z,97.60
2019-02-02T09:04:49.813Z,114.43
2019-02-02T09:07:39.970Z,95.57
2019-02-02T09:10:31.463Z,95.27
2019-02-02T09:13:22.090Z,109.27
2019-02-02T09:16:12.250Z,128.27
2019-02-02T09:19:02.059Z,131.00
2019-02-02T09:21:51.886Z,111.37
2019-02-02T09:24:42.284Z,120.27
2019-02-02T09:27:32.076Z,123.43
2019-02-02T09:30:34.384Z,108.03
2019-02-02T09:33:25.185Z,112.47
2019-02-02T09:36:16.886Z,93.43
2019-02-02T09:39:08.325Z,100.30
2019-02-02T09:41:58.422Z,94.93
2019-02-02T09:44:48.517Z,95.93
2019-02-02T09:47:50.426Z,99.20
2019-02-02T09:50:41.898Z,125.20
2019-02-02T09:53:31.961Z,108.50
2019-02-02T09:56:21.933Z,144.07
2019-02-02T09:59:11.999Z,147.33
2019-02-02T10:02:01.704Z,145.93
2019-02-02T10:04:51.917Z,143.63
2019-02-02T10:07:42.108Z,133.27
2019-02-02T10:10:34.317Z,155.67
2019-02-02T10:13:24.267Z,145.27
2019-02-02T10:16:14.543Z,133.00
2019-02-02T10:19:04.339Z,151.63
2019-02-02T10:21:54.265Z,151.97
2019-02-02T10:24:43.989Z,154.27
2019-02-02T10:27:34.089Z,143.73
2019-02-02T10:30:33.449Z,166.53
2019-02-02T10:33:23.586Z,170.50
2019-02-02T10:36:13.717Z,154.13
2019-02-02T10:39:05.124Z,158.47
2019-02-02T10:41:56.272Z,153.30
2019-02-02T10:44:46.045Z,137.27
2019-02-02T10:47:35.926Z,151.00
2019-02-02T10:50:26.479Z,146.00
2019-02-02T10:53:16.601Z,156.93
2019-02-02T10:56:06.903Z,144.20
2019-02-02T10:58:57.079Z,139.50
2019-02-02T11:01:51.045Z,129.27
2019-02-02T11:04:38.419Z,132.40
2019-02-02T11:07:28.392Z,135.27
2019-02-02T11:10:24.308Z,146.53
2019-02-02T11:13:16.293Z,138.27
2019-02-02T11:16:04.823Z,153.70
2019-02-02T11:18:54.846Z,143.53
2019-02-02T11:21:44.490Z,138.00
2019-02-02T11:24:35.146Z,139.63
2019-02-02T11:27:25.317Z,139.37
2019-02-02T11:30:17.160Z,126.33
2019-02-02T11:33:07.372Z,145.50
2019-02-02T11:35:56.801Z,149.07
2019-02-02T11:38:46.939Z,117.67
2019-02-02T11:41:37.026Z,142.70
2019-02-02T11:44:27.156Z,144.10
2019-02-02T11:47:16.974Z,167.60
2019-02-02T11:50:08.381Z,140.27
2019-02-02T11:52:58.508Z,157.33
2019-02-02T11:55:48.668Z,139.23
2019-02-02T11:58:38.680Z,124.90
2019-02-02T12:01:28.666Z,137.83
2019-02-02T12:04:18.574Z,130.30
2019-02-02T12:07:08.255Z,134.37
2019-02-02T12:10:00.393Z,133.70
2019-02-02T12:12:50.316Z,144.60
2019-02-02T12:15:40.507Z,129.07
2019-02-02T12:18:30.398Z,136.50
2019-02-02T12:21:20.085Z,164.23
2019-02-02T12:24:15.855Z,149.03
2019-02-02T12:27:01.005Z,144.27
2019-02-02T12:29:51.299Z,143.37
2019-02-02T12:32:41.511Z,135.73
2019-02-02T12:35:32.166Z,148.97
2019-02-02T12:38:22.194Z,141.30
2019-02-02T12:41:12.756Z,146.23
2019-02-02T12:44:03.493Z,169.47
2019-02-02T12:46:53.196Z,144.00
2019-02-02T12:49:43.197Z,149.97
2019-02-02T12:52:33.131Z,144.47
2019-02-02T12:55:25.948Z,127.47
2019-02-02T12:58:14.957Z,139.03
2019-02-02T13:01:05.550Z,128.93
2019-02-02T13:04:02.363Z,138.83
2019-02-02T13:06:47.531Z,127.17
2019-02-02T13:09:37.707Z,140.67
2019-02-02T13:12:28.058Z,107.90
2019-02-02T13:15:18.474Z,102.00
2019-02-02T13:18:08.486Z,125.07
2019-02-02T13:20:58.755Z,121.27
2019-02-02T13:23:48.199Z,102.53
2019-02-02T13:26:38.260Z,108.60
2019-02-02T13:29:28.182Z,109.40
2019-02-02T13:32:18.447Z,91.10
2019-02-02T13:35:10.846Z,91.63
2019-02-02T13:38:00.457Z,101.93
2019-02-02T13:40:50.760Z,108.40
2019-02-02T13:43:41.019Z,94.50
2019-02-02T13:46:31.176Z,90.23
2019-02-02T13:49:21.793Z,106.50
2019-02-02T13:52:11.845Z,108.23
2019-02-02T13:55:01.995Z,112.17
2019-02-02T13:57:51.947Z,98.60
2019-02-02T14:00:42.342Z,119.50
2019-02-02T14:03:32.589Z,129.13
2019-02-02T14:06:22.681Z,118.90
2019-02-02T14:09:13.076Z,116.13
2019-02-02T14:12:02.618Z,116.93
2019-02-02T14:14:52.486Z,133.20
2019-02-02T14:17:42.574Z,145.40
2019-02-02T14:20:32.504Z,112.47
2019-02-02T14:23:22.593Z,124.63
2019-02-02T14:26:12.289Z,114.17
2019-02-02T14:29:02.154Z,109.73
2019-02-02T14:31:52.467Z,124.97
2019-02-02T14:34:42.948Z,134.23
2019-02-02T14:37:33.391Z,141.00
2019-02-02T14:40:23.315Z,128.97
2019-02-02T14:43:13.311Z,132.00
2019-02-02T14:46:03.219Z,123.23
2019-02-02T14:48:52.970Z,140.37
2019-02-02T14:51:42.876Z,126.37
2019-02-02T14:54:32.836Z,126.43
2019-02-02T14:57:24.198Z,119.80
2019-02-02T15:00:18.786Z,119.23
2019-02-02T15:03:08.858Z,120.87
2019-02-02T15:05:58.710Z,134.80
2019-02-02T15:08:48.793Z,117.70
2019-02-02T15:11:38.551Z,141.33
2019-02-02T15:14:28.481Z,117.73
2019-02-02T15:17:18.443Z,135.87
2019-02-02T15:20:14.732Z,143.37
2019-02-02T15:23:05.765Z,147.47
2019-02-02T15:25:55.820Z,148.47
2019-02-02T15:28:46.034Z,156.00
2019-02-02T15:31:36.133Z,139.53
2019-02-02T15:34:26.286Z,155.53
2019-02-02T15:37:16.489Z,142.97
2019-02-02T15:40:07.473Z,145.40
2019-02-02T15:42:57.537Z,139.33
2019-02-02T15:45:47.418Z,128.03
2019-02-02T15:48:37.494Z,141.20
2019-02-02T15:51:27.331Z,133.23
2019-02-02T15:54:17.172Z,129.70
2019-02-02T15:57:07.511Z,110.30
2019-02-02T15:59:57.468Z,129.87
2019-02-02T16:02:47.689Z,130.00
2019-02-02T16:05:38.566Z,129.50
2019-02-02T16:08:29.426Z,154.20
2019-02-02T16:11:19.179Z,140.53
2019-02-02T16:14:09.320Z,138.40
2019-02-02T16:16:59.423Z,128.97
2019-02-02T16:19:49.467Z,146.53
2019-02-02T16:22:39.352Z,129.20
2019-02-02T16:25:29.700Z,140.70
2019-02-02T16:28:19.885Z,141.93
2019-02-02T16:31:09.813Z,155.07
2019-02-02T16:34:02.129Z,153.57
2019-02-02T16:36:51.379Z,153.83
2019-02-02T16:39:41.345Z,149.57
2019-02-02T16:42:31.397Z,155.23
2019-02-02T16:45:28.071Z,160.30
2019-02-02T16:48:17.818Z,164.83
2019-02-02T16:51:09.734Z,154.10
2019-02-02T16:54:01.520Z,236.53
2019-02-02T16:56:55.318Z,142.73
2019-02-02T16:59:44.330Z,155.00
2019-02-02T17:02:34.258Z,141.73
2019-02-02T17:05:24.111Z,151.80
2019-02-02T17:08:57.569Z,349.50
2019-02-02T17:11:47.622Z,148.13
2019-02-02T17:14:37.957Z,147.07
2019-02-02T17:17:30.940Z,150.20
2019-02-02T17:20:44.822Z,142.40
2019-02-02T17:23:35.820Z,148.80
2019-02-02T17:26:25.690Z,167.03
2019-02-02T17:29:16.776Z,136.03
2019-02-02T17:32:10.771Z,125.97
2019-02-02T17:35:00.789Z,138.60
2019-02-02T17:37:52.108Z,117.57
2019-02-02T17:40:42.102Z,147.63
2019-02-02T17:43:32.292Z,146.07
2019-02-02T17:46:22.505Z,130.47
2019-02-02T17:49:12.539Z,131.23
2019-02-02T17:52:04.321Z,127.53
2019-02-02T17:54:53.917Z,136.57
2019-02-02T17:57:44.088Z,109.63
2019-02-02T18:00:46.721Z,107.90
2019-02-02T18:03:36.850Z,117.13
2019-02-02T18:06:26.629Z,114.03
2019-02-02T18:09:16.411Z,123.57
2019-02-02T18:12:06.573Z,127.87
2019-02-02T18:14:56.537Z,130.13
2019-02-02T18:17:46.527Z,131.13
2019-02-02T18:20:36.635Z,115.37
2019-02-02T18:23:27.377Z,119.73
2019-02-02T18:26:17.129Z,125.70
2019-02-02T18:29:07.250Z,132.83
2019-02-02T18:31:57.723Z,123.97
2019-02-02T18:34:51.191Z,159.30
2019-02-02T18:37:39.030Z,136.80
2019-02-02T18:40:46.412Z,107.57
2019-02-02T18:43:39.010Z,116.23
2019-02-02T18:46:29.162Z,127.47
2019-02-02T18:49:23.254Z,130.20
2019-02-02T18:52:13.418Z,118.83
2019-02-02T18:55:04.775Z,117.03
2019-02-02T18:57:54.553Z,135.53
2019-02-02T19:00:44.532Z,107.90
2019-02-02T19:03:34.668Z,133.43
2019-02-02T19:06:24.951Z,143.73
2019-02-02T19:09:14.869Z,139.13
2019-02-02T19:12:05.310Z,129.27
2019-02-02T19:14:55.511Z,126.87
2019-02-02T19:17:46.011Z,129.53
2019-02-02T19:20:38.432Z,139.43
2019-02-02T19:23:29.132Z,124.73
2019-02-02T19:26:19.169Z,118.53
2019-02-02T19:29:34.832Z,126.40
2019-02-02T19:32:18.115Z,149.60
2019-02-02T19:35:16.046Z,135.73
2019-02-02T19:38:00.594Z,133.20
2019-02-02T19:40:50.932Z,143.83
2019-02-02T19:43:41.187Z,134.63
2019-02-02T19:46:30.736Z,144.20
2019-02-02T19:49:20.996Z,141.53
2019-02-02T19:52:11.198Z,126.83
2019-02-02T19:55:01.445Z,142.20
2019-02-02T19:57:55.186Z,132.93
2019-02-02T20:00:46.220Z,139.83
2019-02-02T20:03:56.064Z,145.63
2019-02-02T20:06:47.806Z,128.13
2019-02-02T20:09:38.558Z,153.73
2019-02-02T20:12:29.021Z,136.47
2019-02-02T20:15:23.737Z,161.83
2019-02-02T20:18:13.846Z,132.73
2019-02-02T20:21:05.451Z,149.83
2019-02-02T20:23:56.746Z,139.67
2019-02-02T20:26:53.486Z,166.87
2019-02-02T20:29:43.588Z,143.83
2019-02-02T20:32:33.521Z,153.07
2019-02-02T20:35:24.824Z,138.27
2019-02-02T20:38:15.473Z,150.70
2019-02-02T20:41:06.498Z,143.30
2019-02-02T20:43:56.412Z,133.63
2019-02-02T20:46:46.606Z,141.10
2019-02-02T20:49:37.216Z,167.53
2019-02-02T20:52:28.611Z,145.67
2019-02-02T20:55:28.726Z,143.23
2019-02-02T20:58:19.301Z,141.70
2019-02-02T21:01:09.877Z,132.73
2019-02-02T21:04:00.367Z,152.00
2019-02-02T21:06:51.783Z,119.40
2019-02-02T21:09:42.418Z,123.13
2019-02-02T21:12:32.698Z,109.23
2019-02-02T21:15:23.945Z,104.70
2019-02-02T21:18:13.985Z,128.13
2019-02-02T21:21:05.494Z,112.17
2019-02-02T21:23:55.899Z,93.50
2019-02-02T21:26:46.498Z,113.57
2019-02-02T21:29:36.675Z,105.77
2019-02-02T21:32:27.254Z,96.60
2019-02-02T21:35:18.070Z,109.87
2019-02-02T21:38:08.675Z,103.57
2019-02-02T21:40:59.060Z,110.03
2019-02-02T21:43:49.558Z,98.20
2019-02-02T21:46:47.715Z,118.73
2019-02-02T21:49:38.900Z,132.77
2019-02-02T21:52:28.723Z,101.40
2019-02-02T21:55:20.373Z,115.13
2019-02-02T21:58:11.227Z,100.03
2019-02-02T22:01:00.418Z,98.33
2019-02-02T22:04:02.005Z,131.90
2019-02-02T22:07:10.951Z,106.00
2019-02-02T22:10:03.444Z,96.70
2019-02-02T22:13:02.684Z,96.43
2019-02-02T22:15:54.062Z,92.83
2019-02-02T22:18:44.866Z,92.93
2019-02-02T22:21:34.905Z,104.40
2019-02-02T22:24:28.430Z,107.90
2019-02-02T22:27:21.131Z,109.97
2019-02-02T22:30:21.456Z,105.97
2019-02-02T22:33:12.559Z,101.83
2019-02-02T22:36:02.478Z,113.60
2019-02-02T22:38:53.070Z,109.73
2019-02-02T22:46:01.606Z,117.87
2019-02-02T22:48:51.045Z,116.03
2019-02-02T22:51:50.483Z,124.73
2019-02-02T22:54:40.413Z,98.47
2019-02-02T22:57:29.652Z,107.20
2019-02-02T23:05:50.423Z,99.23
2019-02-02T23:09:58.708Z,100.23
2019-02-02T23:14:03.499Z,106.27
2019-02-02T23:16:53.826Z,90.77
2019-02-02T23:19:44.021Z,99.77
2019-02-02T23:22:34.074Z,104.77
2019-02-02T23:25:23.883Z,115.93
2019-02-02T23:28:13.254Z,119.47
2019-02-02T23:31:02.734Z,103.80
2019-02-02T23:33:52.540Z,103.43
2019-02-02T23:36:50.915Z,131.30
2019-02-02T23:39:34.204Z,114.30
2019-02-02T23:42:24.514Z,127.07
2019-02-02T23:45:14.705Z,99.10
2019-02-02T23:48:04.547Z,116.23
2019-02-02T23:50:54.628Z,146.70
2019-02-02T23:53:44.718Z,141.40
2019-02-02T23:56:34.189Z,127.00
2019-02-02T23:59:24.282Z,150.57
